Time;durP1;ratioP1;P1;durP2;ratioP2;P2;SDS_P1;SDS_P2;PMS_P1;PMS_P2;Temp;Humidity;BMP_temperature;BMP_pressure;BME280_temperature;BME280_humidity;BME280_pressure;Samples;Min_cycle;Max_cycle;Signal;HPM_P1;HPM_P2
2022/06/21 00:02:13;;;;;;;0.60;0.60;;;;;;;;;;1767181;79;26648;-48
2022/06/21 00:04:40;;;;;;;0.60;0.60;;;;;;;;;;1778666;79;26350;-49
2022/06/21 00:07:09;;;;;;;0.60;0.60;;;;;;;;;;1771260;79;26347;-48
2022/06/21 00:09:37;;;;;;;0.70;0.70;;;;;;;;;;1764587;80;26312;-46
2022/06/21 00:12:04;;;;;;;0.70;0.70;;;;;;;;;;1734041;80;26448;-52
2022/06/21 00:14:32;;;;;;;0.60;0.60;;;;;;;;;;1753730;79;26341;-52
2022/06/21 00:16:59;;;;;;;0.55;0.55;;;;;;;;;;1749838;79;26747;-47
2022/06/21 00:19:26;;;;;;;0.82;0.82;;;;;;;;;;1765013;80;26724;-50
2022/06/21 00:21:53;;;;;;;0.70;0.70;;;;;;;;;;1757379;79;27458;-47
2022/06/21 00:24:21;;;;;;;0.70;0.70;;;;;;;;;;1753107;80;26877;-47
2022/06/21 00:26:48;;;;;;;0.60;0.60;;;;;;;;;;1762473;80;26295;-46
2022/06/21 00:29:16;;;;;;;0.65;0.65;;;;;;;;;;1763797;80;26248;-50
2022/06/21 00:31:48;;;;;;;0.70;0.70;;;;;;;;;;1749764;80;26326;-47
2022/06/21 00:34:17;;;;;;;0.60;0.60;;;;;;;;;;1763542;80;26291;-49
2022/06/21 00:36:45;;;;;;;0.70;0.70;;;;;;;;;;1771259;80;26764;-48
2022/06/21 00:39:14;;;;;;;0.53;0.53;;;;;;;;;;1750223;80;26326;-48
2022/06/21 00:41:48;;;;;;;0.70;0.70;;;;;;;;;;1760446;79;26800;-55
2022/06/21 00:44:23;;;;;;;0.53;0.53;;;;;;;;;;1758795;79;26307;-46
2022/06/21 00:46:55;;;;;;;0.60;0.60;;;;;;;;;;1768640;79;26432;-48
2022/06/21 00:49:27;;;;;;;0.60;0.60;;;;;;;;;;1768629;79;26721;-49
2022/06/21 00:51:57;;;;;;;1.30;0.80;;;;;;;;;;1762845;79;26759;-48
2022/06/21 00:54:26;;;;;;;0.60;0.60;;;;;;;;;;1769435;79;26323;-50
2022/06/21 00:56:55;;;;;;;1.95;0.70;;;;;;;;;;1788374;79;26664;-47
2022/06/21 00:59:27;;;;;;;0.68;0.68;;;;;;;;;;1759332;79;26383;-47
2022/06/21 01:01:56;;;;;;;0.70;0.70;;;;;;;;;;1765518;79;26375;-47
2022/06/21 01:04:24;;;;;;;0.70;0.70;;;;;;;;;;1787842;74;50571;-91
2022/06/21 01:06:53;;;;;;;0.70;0.70;;;;;;;;;;1900310;75;26295;-91
2022/06/21 01:09:28;;;;;;;0.60;0.60;;;;;;;;;;1852462;74;51640;-50
2022/06/21 01:11:57;;;;;;;0.72;0.72;;;;;;;;;;1786562;79;26643;-46
2022/06/21 01:14:25;;;;;;;0.80;0.80;;;;;;;;;;1802415;79;26514;-48
2022/06/21 01:16:53;;;;;;;0.80;0.80;;;;;;;;;;1783184;79;26325;-50
2022/06/21 01:19:36;;;;;;;1.20;0.70;;;;;;;;;;1783078;79;26285;-49
2022/06/21 01:22:11;;;;;;;0.70;0.70;;;;;;;;;;1794638;79;26259;-51
2022/06/21 01:24:40;;;;;;;0.80;0.80;;;;;;;;;;1773714;79;26404;-52
2022/06/21 01:27:08;;;;;;;0.70;0.70;;;;;;;;;;1768113;79;26732;-49
2022/06/21 01:29:35;;;;;;;0.70;0.70;;;;;;;;;;1780148;79;26679;-51
2022/06/21 01:32:04;;;;;;;0.70;0.70;;;;;;;;;;1780102;79;26314;-48
2022/06/21 01:34:32;;;;;;;0.70;0.70;;;;;;;;;;1770231;79;26483;-51
2022/06/21 01:37:03;;;;;;;0.72;0.72;;;;;;;;;;1771353;79;26733;-49
2022/06/21 01:39:35;;;;;;;0.70;0.70;;;;;;;;;;1761545;79;26265;-53
2022/06/21 01:42:04;;;;;;;0.70;0.70;;;;;;;;;;1776794;79;26283;-49
2022/06/21 01:44:33;;;;;;;0.78;0.78;;;;;;;;;;1781571;79;26235;-50
2022/06/21 01:47:02;;;;;;;0.80;0.80;;;;;;;;;;1778085;79;26298;-49
2022/06/21 01:49:30;;;;;;;0.80;0.80;;;;;;;;;;1780515;79;26356;-53
2022/06/21 01:51:59;;;;;;;0.85;0.85;;;;;;;;;;1793975;79;26271;-50
2022/06/21 01:54:29;;;;;;;0.88;0.88;;;;;;;;;;1794503;78;26273;-53
2022/06/21 01:56:56;;;;;;;2.47;0.90;;;;;;;;;;1802242;78;26758;-51
2022/06/21 01:59:31;;;;;;;1.10;1.10;;;;;;;;;;1787939;79;26286;-50
2022/06/21 02:02:03;;;;;;;2.30;1.00;;;;;;;;;;1776008;79;26336;-52
2022/06/21 02:04:32;;;;;;;1.65;0.70;;;;;;;;;;1778530;79;26350;-54
2022/06/21 02:07:01;;;;;;;2.50;0.70;;;;;;;;;;1776651;79;26390;-50
2022/06/21 02:09:30;;;;;;;0.70;0.70;;;;;;;;;;1748856;79;26344;-47
2022/06/21 02:11:58;;;;;;;0.80;0.80;;;;;;;;;;1743488;80;26308;-48
2022/06/21 02:14:29;;;;;;;1.92;0.80;;;;;;;;;;1736585;80;26242;-49
2022/06/21 02:17:06;;;;;;;1.47;0.78;;;;;;;;;;1743921;80;26382;-49
2022/06/21 02:19:36;;;;;;;0.88;0.80;;;;;;;;;;1743051;80;26311;-48
2022/06/21 02:22:03;;;;;;;1.00;1.00;;;;;;;;;;1750714;80;26796;-49
2022/06/21 02:24:31;;;;;;;0.80;0.80;;;;;;;;;;1745335;80;26313;-51
2022/06/21 02:27:00;;;;;;;1.80;0.90;;;;;;;;;;1738896;80;26376;-52
2022/06/21 02:29:28;;;;;;;1.00;1.00;;;;;;;;;;1750850;80;26817;-53
2022/06/21 02:31:56;;;;;;;0.80;0.80;;;;;;;;;;1752962;80;26244;-50
2022/06/21 02:34:25;;;;;;;0.88;0.88;;;;;;;;;;1747616;80;26249;-52
2022/06/21 02:36:53;;;;;;;0.93;0.80;;;;;;;;;;1741072;81;26294;-51
2022/06/21 02:39:22;;;;;;;0.80;0.80;;;;;;;;;;1746602;80;26805;-50
2022/06/21 02:42:00;;;;;;;0.80;0.80;;;;;;;;;;1744148;80;26303;-50
2022/06/21 02:44:32;;;;;;;0.80;0.80;;;;;;;;;;1741896;80;26253;-50
2022/06/21 02:47:00;;;;;;;1.02;0.90;;;;;;;;;;1748712;80;26461;-51
2022/06/21 02:49:29;;;;;;;0.78;0.78;;;;;;;;;;1749178;81;26382;-49
2022/06/21 02:52:01;;;;;;;0.80;0.80;;;;;;;;;;1735956;80;26779;-50
2022/06/21 02:54:36;;;;;;;0.70;0.70;;;;;;;;;;1742605;80;26410;-51
2022/06/21 02:57:07;;;;;;;0.88;0.88;;;;;;;;;;1751635;80;26308;-48
2022/06/21 02:59:36;;;;;;;0.93;0.93;;;;;;;;;;1748817;81;26230;-50
2022/06/21 03:02:07;;;;;;;0.80;0.80;;;;;;;;;;1759283;80;26306;-49
2022/06/21 03:04:35;;;;;;;0.80;0.80;;;;;;;;;;1747952;80;26301;-50
2022/06/21 03:07:03;;;;;;;0.80;0.80;;;;;;;;;;1749731;80;26368;-50
2022/06/21 03:09:30;;;;;;;0.80;0.80;;;;;;;;;;1759961;80;26336;-48
2022/06/21 03:11:59;;;;;;;0.98;0.98;;;;;;;;;;1787142;79;26685;-51
2022/06/21 03:14:28;;;;;;;0.88;0.88;;;;;;;;;;1794052;79;26250;-48
2022/06/21 03:16:57;;;;;;;0.88;0.88;;;;;;;;;;1782344;79;26227;-51
2022/06/21 03:19:26;;;;;;;1.00;0.90;;;;;;;;;;1766831;79;27569;-50
2022/06/21 03:21:54;;;;;;;0.90;0.90;;;;;;;;;;1791683;79;26380;-48
2022/06/21 03:24:22;;;;;;;1.12;1.00;;;;;;;;;;1767314;79;26338;-49
2022/06/21 03:27:07;;;;;;;0.90;0.90;;;;;;;;;;1757678;79;26286;-51
2022/06/21 03:29:34;;;;;;;0.80;0.80;;;;;;;;;;1768355;79;26313;-52
2022/06/21 03:32:03;;;;;;;0.95;0.93;;;;;;;;;;1770504;79;26239;-48
2022/06/21 03:34:31;;;;;;;0.85;0.85;;;;;;;;;;1763155;79;26835;-50
2022/06/21 03:37:00;;;;;;;0.90;0.80;;;;;;;;;;1770854;79;26290;-50
2022/06/21 03:42:15;;;;;;;0.85;0.85;;;;;;;;;;1764120;79;26888;-50
2022/06/21 03:44:49;;;;;;;0.93;0.93;;;;;;;;;;1785825;79;26360;-52
2022/06/21 03:47:18;;;;;;;0.80;0.80;;;;;;;;;;1762372;79;26690;-48
2022/06/21 03:49:47;;;;;;;0.80;0.80;;;;;;;;;;1766921;79;26852;-49
2022/06/21 03:52:41;;;;;;;0.80;0.80;;;;;;;;;;1768274;80;27259;-52
2022/06/21 03:54:46;;;;;;;0.90;0.90;;;;;;;;;;1771244;79;26914;-49
2022/06/21 03:57:27;;;;;;;1.17;0.80;;;;;;;;;;1777429;79;26720;-58
2022/06/21 03:59:59;;;;;;;0.80;0.80;;;;;;;;;;1753574;79;26353;-50
2022/06/21 04:02:28;;;;;;;0.80;0.80;;;;;;;;;;1786096;79;26842;-52
2022/06/21 04:04:59;;;;;;;0.90;0.88;;;;;;;;;;1769874;79;26875;-49
2022/06/21 04:07:31;;;;;;;0.90;0.90;;;;;;;;;;1772099;79;26368;-50
2022/06/21 04:10:06;;;;;;;0.90;0.90;;;;;;;;;;1748911;80;26301;-47
2022/06/21 04:12:41;;;;;;;0.90;0.90;;;;;;;;;;1752426;80;26347;-49
2022/06/21 04:15:10;;;;;;;0.90;0.90;;;;;;;;;;1752375;80;26229;-52
2022/06/21 04:17:38;;;;;;;0.88;0.88;;;;;;;;;;1749522;80;26335;-54
2022/06/21 04:20:07;;;;;;;0.93;0.93;;;;;;;;;;1761034;80;26310;-51
2022/06/21 04:22:39;;;;;;;1.00;1.00;;;;;;;;;;1758077;80;26292;-50
2022/06/21 04:25:10;;;;;;;0.93;0.93;;;;;;;;;;1750156;80;26570;-52
2022/06/21 04:27:58;;;;;;;1.30;1.00;;;;;;;;;;1751535;80;26300;-53
2022/06/21 04:30:38;;;;;;;0.90;0.90;;;;;;;;;;1699740;82;26375;-52
2022/06/21 04:33:10;;;;;;;0.90;0.90;;;;;;;;;;1720682;83;26921;-56
2022/06/21 04:35:41;;;;;;;0.90;0.90;;;;;;;;;;1747140;80;26751;-52
2022/06/21 04:38:10;;;;;;;0.90;0.90;;;;;;;;;;1779514;80;26749;-51
2022/06/21 04:40:39;;;;;;;1.00;1.00;;;;;;;;;;1749961;80;26316;-52
2022/06/21 04:43:17;;;;;;;1.00;0.88;;;;;;;;;;1738113;81;26315;-54
2022/06/21 04:46:01;;;;;;;1.15;1.15;;;;;;;;;;1738960;81;26752;-49
2022/06/21 04:48:29;;;;;;;1.00;1.00;;;;;;;;;;1731693;81;26363;-51
2022/06/21 04:50:59;;;;;;;0.88;0.88;;;;;;;;;;1734831;81;26308;-54
2022/06/21 04:53:45;;;;;;;1.47;0.98;;;;;;;;;;1732163;81;26700;-53
2022/06/21 04:56:30;;;;;;;1.10;1.10;;;;;;;;;;1734676;81;26335;-52
2022/06/21 04:58:57;;;;;;;0.90;0.90;;;;;;;;;;1735872;81;26226;-47
2022/06/21 05:01:37;;;;;;;0.90;0.90;;;;;;;;;;1738584;81;26351;-51
2022/06/21 05:04:14;;;;;;;1.37;1.30;;;;;;;;;;1738259;81;26795;-50
2022/06/21 05:06:42;;;;;;;0.95;0.95;;;;;;;;;;1741164;81;26289;-51
2022/06/21 05:09:11;;;;;;;0.90;0.90;;;;;;;;;;1734837;81;26328;-54
2022/06/21 05:11:38;;;;;;;0.82;0.82;;;;;;;;;;1735836;81;26353;-51
2022/06/21 05:14:05;;;;;;;1.00;1.00;;;;;;;;;;1738157;81;26273;-52
2022/06/21 05:16:34;;;;;;;1.00;1.00;;;;;;;;;;1736822;81;26277;-53
2022/06/21 05:19:08;;;;;;;1.02;1.02;;;;;;;;;;1746898;81;26709;-50
2022/06/21 05:21:34;;;;;;;1.10;1.05;;;;;;;;;;1736150;81;26249;-52
2022/06/21 05:24:02;;;;;;;0.90;0.90;;;;;;;;;;1734591;81;26297;-50
2022/06/21 05:26:34;;;;;;;1.67;1.00;;;;;;;;;;1738136;81;26281;-52
2022/06/21 05:29:05;;;;;;;1.22;1.20;;;;;;;;;;1739079;81;26739;-49
2022/06/21 05:31:34;;;;;;;1.85;0.98;;;;;;;;;;1733933;81;26269;-52
2022/06/21 05:34:08;;;;;;;2.87;1.20;;;;;;;;;;1736829;81;26389;-49
2022/06/21 05:36:37;;;;;;;1.52;0.90;;;;;;;;;;1729048;81;26827;-50
2022/06/21 05:39:07;;;;;;;6.28;1.00;;;;;;;;;;1739053;81;26839;-53
2022/06/21 05:41:36;;;;;;;1.75;0.90;;;;;;;;;;1739924;81;26247;-54
2022/06/21 05:44:05;;;;;;;1.10;1.10;;;;;;;;;;1733850;81;26301;-51
2022/06/21 05:46:34;;;;;;;1.05;1.02;;;;;;;;;;1738996;81;26250;-54
2022/06/21 05:49:08;;;;;;;2.25;1.00;;;;;;;;;;1735062;81;26426;-54
2022/06/21 05:51:32;;;;;;;1.45;0.90;;;;;;;;;;1743097;81;26311;-55
2022/06/21 05:54:01;;;;;;;0.82;0.82;;;;;;;;;;1736481;81;26347;-53
2022/06/21 05:56:31;;;;;;;1.05;0.90;;;;;;;;;;1738519;81;26737;-56
2022/06/21 05:59:05;;;;;;;1.92;1.02;;;;;;;;;;1739261;81;26665;-54
2022/06/21 06:01:37;;;;;;;1.87;1.20;;;;;;;;;;1729670;81;26682;-54
2022/06/21 06:04:09;;;;;;;1.27;1.20;;;;;;;;;;1734320;81;26382;-55
2022/06/21 06:06:39;;;;;;;2.35;1.00;;;;;;;;;;1740338;81;26357;-52
2022/06/21 06:09:08;;;;;;;3.85;1.07;;;;;;;;;;1755857;80;26341;-53
2022/06/21 06:14:23;;;;;;;1.07;1.02;;;;;;;;;;1743878;81;26388;-55
2022/06/21 06:16:51;;;;;;;1.62;1.10;;;;;;;;;;1742728;81;26329;-57
2022/06/21 06:19:32;;;;;;;2.60;1.10;;;;;;;;;;1741331;81;26929;-52
2022/06/21 06:22:08;;;;;;;1.72;1.10;;;;;;;;;;1738550;81;26360;-52
2022/06/21 06:24:37;;;;;;;1.20;1.10;;;;;;;;;;1734191;81;26292;-55
2022/06/21 06:27:06;;;;;;;3.10;1.10;;;;;;;;;;1719906;82;26296;-54
2022/06/21 06:29:34;;;;;;;1.10;1.10;;;;;;;;;;1709379;82;26371;-55
2022/06/21 06:32:06;;;;;;;4.10;1.40;;;;;;;;;;1721279;82;26359;-53
2022/06/21 06:34:35;;;;;;;1.62;1.52;;;;;;;;;;1712679;81;26303;-53
2022/06/21 06:37:03;;;;;;;1.40;1.40;;;;;;;;;;1734718;81;26256;-54
2022/06/21 06:39:32;;;;;;;3.02;1.52;;;;;;;;;;1720277;81;26817;-59
2022/06/21 06:42:04;;;;;;;2.42;1.60;;;;;;;;;;1737576;81;26364;-54
2022/06/21 06:44:33;;;;;;;1.90;1.55;;;;;;;;;;1724313;81;26318;-61
2022/06/21 06:47:02;;;;;;;1.40;1.40;;;;;;;;;;1730354;81;26868;-53
2022/06/21 06:49:33;;;;;;;1.70;1.70;;;;;;;;;;1731524;81;26776;-55
2022/06/21 06:52:11;;;;;;;2.87;1.80;;;;;;;;;;1727848;81;26455;-55
2022/06/21 06:54:40;;;;;;;1.82;1.72;;;;;;;;;;1726230;81;26296;-54
2022/06/21 06:57:18;;;;;;;3.17;2.05;;;;;;;;;;1730239;81;26786;-54
2022/06/21 06:59:46;;;;;;;2.05;1.87;;;;;;;;;;1728872;81;26405;-54
2022/06/21 07:02:17;;;;;;;2.08;1.92;;;;;;;;;;1725583;81;26445;-56
2022/06/21 07:04:47;;;;;;;1.70;1.70;;;;;;;;;;1725471;81;26360;-55
2022/06/21 07:07:18;;;;;;;2.30;2.20;;;;;;;;;;1731488;81;26364;-53
2022/06/21 07:09:47;;;;;;;2.27;2.08;;;;;;;;;;1730408;81;26337;-51
2022/06/21 07:12:28;;;;;;;2.20;2.10;;;;;;;;;;1736575;81;26372;-53
2022/06/21 07:14:56;;;;;;;1.90;1.90;;;;;;;;;;1736470;80;26291;-51
2022/06/21 07:17:25;;;;;;;1.90;1.90;;;;;;;;;;1763629;80;26285;-52
2022/06/21 07:19:53;;;;;;;1.87;1.80;;;;;;;;;;1739037;80;26390;-51
2022/06/21 07:22:22;;;;;;;2.12;2.02;;;;;;;;;;1757770;80;26379;-54
2022/06/21 07:24:54;;;;;;;2.27;2.10;;;;;;;;;;1753003;80;26271;-54
2022/06/21 07:27:22;;;;;;;2.10;2.00;;;;;;;;;;1747023;80;26728;-53
2022/06/21 07:29:56;;;;;;;2.20;2.02;;;;;;;;;;1749199;80;26312;-52
2022/06/21 07:32:27;;;;;;;2.22;2.12;;;;;;;;;;1751139;80;26787;-54
2022/06/21 07:34:56;;;;;;;2.08;2.05;;;;;;;;;;1752409;80;26231;-53
2022/06/21 07:37:25;;;;;;;2.00;1.80;;;;;;;;;;1747091;80;26410;-55
2022/06/21 07:40:03;;;;;;;3.70;1.80;;;;;;;;;;1742525;80;26686;-51
2022/06/21 07:42:35;;;;;;;2.27;1.87;;;;;;;;;;1744596;80;26294;-54
2022/06/21 07:45:20;;;;;;;4.00;2.00;;;;;;;;;;1749131;80;26296;-54
2022/06/21 07:47:58;;;;;;;2.05;1.98;;;;;;;;;;1751445;80;26299;-58
2022/06/21 07:50:30;;;;;;;1.95;1.95;;;;;;;;;;1749118;80;26301;-54
2022/06/21 07:52:59;;;;;;;2.05;1.95;;;;;;;;;;1747683;80;26364;-55
2022/06/21 07:55:28;;;;;;;2.10;2.00;;;;;;;;;;1746361;80;26670;-57
2022/06/21 07:57:57;;;;;;;1.87;1.80;;;;;;;;;;1748218;80;26764;-55
2022/06/21 08:00:26;;;;;;;3.52;2.00;;;;;;;;;;1751662;80;26902;-55
2022/06/21 08:08:37;;;;;;;2.50;1.72;;;;;;;;;;1749037;80;26461;-52
2022/06/21 08:11:06;;;;;;;2.00;1.90;;;;;;;;;;1749007;80;26290;-54
2022/06/21 08:13:33;;;;;;;2.05;1.95;;;;;;;;;;1738896;81;26399;-57
2022/06/21 08:16:07;;;;;;;1.80;1.75;;;;;;;;;;1733387;81;26871;-53
2022/06/21 08:18:36;;;;;;;1.90;1.80;;;;;;;;;;1735943;81;26269;-52
2022/06/21 08:21:05;;;;;;;2.00;1.90;;;;;;;;;;1735170;81;26363;-57
2022/06/21 08:23:36;;;;;;;1.90;1.80;;;;;;;;;;1734507;81;26274;-56
2022/06/21 08:26:08;;;;;;;1.80;1.80;;;;;;;;;;1743635;81;26751;-55
2022/06/21 08:28:40;;;;;;;1.60;1.60;;;;;;;;;;1723651;81;26317;-59
2022/06/21 08:31:12;;;;;;;1.90;1.80;;;;;;;;;;1712642;82;27503;-55
2022/06/21 08:33:46;;;;;;;1.72;1.62;;;;;;;;;;1747288;80;26351;-55
2022/06/21 08:36:18;;;;;;;1.90;1.80;;;;;;;;;;1737409;81;26273;-59
2022/06/21 08:38:47;;;;;;;1.80;1.70;;;;;;;;;;1743117;81;26317;-55
2022/06/21 08:41:51;;;;;;;1.50;1.50;;;;;;;;;;1741706;81;26214;-55
2022/06/21 08:43:56;;;;;;;1.62;1.62;;;;;;;;;;1733924;81;26304;-56
2022/06/21 08:46:36;;;;;;;1.60;1.60;;;;;;;;;;1738542;81;26281;-59
2022/06/21 08:49:08;;;;;;;2.55;1.62;;;;;;;;;;1738267;81;26367;-59
2022/06/21 08:51:40;;;;;;;1.60;1.55;;;;;;;;;;1741691;81;26233;-57
2022/06/21 08:54:26;;;;;;;1.60;1.50;;;;;;;;;;1743516;81;26757;-60
2022/06/21 08:57:04;;;;;;;1.60;1.60;;;;;;;;;;1740787;81;27384;-59
2022/06/21 08:59:33;;;;;;;1.50;1.50;;;;;;;;;;1731609;81;26309;-57
2022/06/21 09:02:07;;;;;;;1.40;1.40;;;;;;;;;;1741566;81;26712;-61
2022/06/21 09:04:53;;;;;;;1.60;1.60;;;;;;;;;;1741722;81;26285;-54
2022/06/21 09:07:21;;;;;;;1.60;1.50;;;;;;;;;;1739088;81;26602;-57
2022/06/21 09:09:50;;;;;;;1.50;1.50;;;;;;;;;;1738117;81;26394;-57
2022/06/21 09:12:29;;;;;;;1.20;1.20;;;;;;;;;;1736564;81;26308;-51
2022/06/21 09:15:14;;;;;;;1.42;1.42;;;;;;;;;;1711045;82;26320;-57
2022/06/21 09:17:43;;;;;;;1.30;1.30;;;;;;;;;;1755468;81;26661;-57
2022/06/21 09:20:12;;;;;;;1.40;1.40;;;;;;;;;;1686256;83;26419;-55
2022/06/21 09:22:43;;;;;;;2.58;1.50;;;;;;;;;;1739890;81;26313;-52
2022/06/21 09:25:13;;;;;;;1.30;1.30;;;;;;;;;;1741154;81;26731;-52
2022/06/21 09:27:44;;;;;;;1.45;1.45;;;;;;;;;;1741699;81;26768;-56
2022/06/21 09:30:25;;;;;;;1.40;1.40;;;;;;;;;;1711331;81;26348;-54
2022/06/21 09:32:57;;;;;;;1.27;1.27;;;;;;;;;;1738676;81;26862;-52
2022/06/21 09:35:38;;;;;;;1.30;1.30;;;;;;;;;;1734355;81;26740;-58
2022/06/21 09:38:07;;;;;;;1.37;1.35;;;;;;;;;;1739767;81;26421;-57
2022/06/21 09:40:36;;;;;;;1.65;1.45;;;;;;;;;;1738548;81;26458;-54
2022/06/21 09:43:05;;;;;;;1.50;1.40;;;;;;;;;;1741021;81;26429;-55
2022/06/21 09:45:51;;;;;;;1.62;1.52;;;;;;;;;;1740272;81;26310;-53
2022/06/21 09:48:19;;;;;;;1.30;1.30;;;;;;;;;;1738304;81;26326;-53
2022/06/21 09:50:54;;;;;;;1.40;1.30;;;;;;;;;;1732475;81;26368;-57
2022/06/21 09:53:23;;;;;;;1.85;1.30;;;;;;;;;;1741194;81;26364;-57
2022/06/21 09:55:54;;;;;;;1.20;1.20;;;;;;;;;;1740038;81;26352;-55
2022/06/21 09:58:26;;;;;;;1.65;1.45;;;;;;;;;;1737964;81;26791;-52
2022/06/21 10:00:57;;;;;;;2.37;1.25;;;;;;;;;;1735065;81;26729;-51
2022/06/21 10:03:26;;;;;;;1.30;1.30;;;;;;;;;;1736628;81;26751;-53
2022/06/21 10:05:55;;;;;;;1.30;1.30;;;;;;;;;;1735761;81;26343;-52
2022/06/21 10:08:39;;;;;;;1.20;1.20;;;;;;;;;;1740756;81;26391;-56
2022/06/21 10:11:14;;;;;;;1.40;1.30;;;;;;;;;;1703211;83;26333;-52
2022/06/21 10:13:43;;;;;;;1.42;1.32;;;;;;;;;;1739627;80;26474;-52
2022/06/21 10:16:15;;;;;;;1.47;1.20;;;;;;;;;;1759736;80;26392;-53
2022/06/21 10:18:53;;;;;;;1.37;1.37;;;;;;;;;;1758956;80;26302;-55
2022/06/21 10:21:31;;;;;;;1.15;1.15;;;;;;;;;;1758841;80;26304;-52
2022/06/21 10:24:00;;;;;;;1.20;1.20;;;;;;;;;;1762639;79;26730;-56
2022/06/21 10:26:45;;;;;;;1.10;1.10;;;;;;;;;;1763333;79;26309;-53
2022/06/21 10:29:21;;;;;;;1.20;1.20;;;;;;;;;;1770306;79;26794;-51
2022/06/21 10:32:04;;;;;;;1.60;1.25;;;;;;;;;;1768858;79;26301;-54
2022/06/21 10:34:33;;;;;;;1.10;1.10;;;;;;;;;;1755070;80;26316;-55
2022/06/21 10:37:08;;;;;;;1.70;1.07;;;;;;;;;;1759167;80;26252;-48
2022/06/21 10:39:43;;;;;;;1.20;1.10;;;;;;;;;;1758497;80;26245;-52
2022/06/21 10:45:09;;;;;;;1.30;1.30;;;;;;;;;;1746898;80;26388;-58
2022/06/21 10:47:41;;;;;;;1.95;1.20;;;;;;;;;;1751753;80;26758;-58
2022/06/21 10:50:09;;;;;;;1.22;1.22;;;;;;;;;;1750421;80;26298;-55
2022/06/21 10:52:38;;;;;;;1.05;1.05;;;;;;;;;;1757265;80;26293;-57
2022/06/21 10:55:20;;;;;;;1.98;1.40;;;;;;;;;;1761419;80;26332;-58
2022/06/21 10:58:05;;;;;;;1.25;1.25;;;;;;;;;;1756916;80;26294;-56
2022/06/21 11:03:24;;;;;;;1.22;1.12;;;;;;;;;;1750211;80;26388;-53
2022/06/21 11:05:58;;;;;;;1.20;1.20;;;;;;;;;;1749592;80;27425;-57
2022/06/21 11:08:27;;;;;;;1.40;1.30;;;;;;;;;;1748558;80;26857;-58
2022/06/21 11:10:56;;;;;;;1.65;1.30;;;;;;;;;;1783101;79;26287;-59
2022/06/21 11:13:25;;;;;;;1.65;1.20;;;;;;;;;;1771550;79;26396;-58
2022/06/21 11:16:06;;;;;;;1.20;1.20;;;;;;;;;;1748016;81;26370;-59
2022/06/21 11:18:34;;;;;;;1.55;1.45;;;;;;;;;;1755305;80;26307;-55
2022/06/21 11:21:06;;;;;;;1.30;1.30;;;;;;;;;;1750728;80;26309;-59
2022/06/21 11:23:52;;;;;;;1.35;1.35;;;;;;;;;;1751653;80;26813;-59
2022/06/21 11:26:23;;;;;;;1.47;1.40;;;;;;;;;;1752586;80;26383;-58
2022/06/21 11:28:52;;;;;;;1.20;1.20;;;;;;;;;;1750839;80;26362;-54
2022/06/21 11:31:21;;;;;;;1.45;1.45;;;;;;;;;;1742018;80;26414;-56
2022/06/21 11:33:52;;;;;;;1.65;1.30;;;;;;;;;;1751347;80;26293;-55
2022/06/21 11:36:24;;;;;;;1.30;1.30;;;;;;;;;;1761401;80;26360;-53
2022/06/21 11:38:56;;;;;;;1.20;1.20;;;;;;;;;;1759251;80;26348;-58
2022/06/21 11:44:30;;;;;;;1.37;1.37;;;;;;;;;;1743856;80;26783;-54
2022/06/21 11:46:58;;;;;;;1.30;1.30;;;;;;;;;;1756046;80;26736;-59
2022/06/21 11:49:40;;;;;;;1.77;1.40;;;;;;;;;;1749357;80;27525;-59
2022/06/21 11:52:09;;;;;;;1.37;1.37;;;;;;;;;;1750262;80;26309;-59
2022/06/21 11:54:38;;;;;;;1.30;1.30;;;;;;;;;;1738894;80;26402;-58
2022/06/21 11:57:19;;;;;;;1.40;1.40;;;;;;;;;;1744879;80;26304;-60
2022/06/21 12:00:00;;;;;;;1.30;1.30;;;;;;;;;;1727398;81;26292;-56
2022/06/21 12:02:32;;;;;;;1.27;1.25;;;;;;;;;;1767561;79;26773;-59
2022/06/21 12:05:07;;;;;;;1.40;1.40;;;;;;;;;;1764341;79;26800;-56
2022/06/21 12:07:42;;;;;;;1.40;1.40;;;;;;;;;;1774288;79;26744;-57
2022/06/21 12:10:11;;;;;;;1.40;1.40;;;;;;;;;;1753264;80;26969;-57
2022/06/21 12:12:48;;;;;;;1.70;1.70;;;;;;;;;;1768956;79;26658;-53
2022/06/21 12:15:26;;;;;;;1.50;1.50;;;;;;;;;;1736949;80;26699;-54
2022/06/21 12:17:55;;;;;;;1.50;1.50;;;;;;;;;;1753148;80;26850;-56
2022/06/21 12:20:24;;;;;;;1.80;1.70;;;;;;;;;;1777184;79;26302;-52
2022/06/21 12:22:53;;;;;;;1.62;1.57;;;;;;;;;;1763859;79;26283;-50
2022/06/21 12:25:21;;;;;;;1.67;1.67;;;;;;;;;;1759751;79;26403;-55
2022/06/21 12:27:48;;;;;;;1.80;1.80;;;;;;;;;;1766696;79;26298;-52
2022/06/21 12:30:17;;;;;;;1.80;1.80;;;;;;;;;;1763847;79;26729;-56
2022/06/21 12:32:45;;;;;;;1.70;1.70;;;;;;;;;;1788608;79;26314;-54
2022/06/21 12:35:16;;;;;;;1.60;1.60;;;;;;;;;;1755286;80;26350;-56
2022/06/21 12:37:53;;;;;;;1.87;1.77;;;;;;;;;;1761668;80;26317;-55
2022/06/21 12:40:40;;;;;;;1.92;1.90;;;;;;;;;;1770974;79;26745;-56
2022/06/21 12:43:12;;;;;;;1.80;1.80;;;;;;;;;;1748071;80;26305;-54
2022/06/21 12:45:56;;;;;;;1.67;1.67;;;;;;;;;;1781242;79;26685;-53
2022/06/21 12:48:34;;;;;;;1.75;1.75;;;;;;;;;;1754299;80;26304;-57
2022/06/21 12:51:19;;;;;;;1.75;1.65;;;;;;;;;;1749772;80;27421;-60
2022/06/21 12:53:51;;;;;;;1.80;1.80;;;;;;;;;;1775975;79;26755;-58
2022/06/21 12:56:37;;;;;;;1.85;1.85;;;;;;;;;;1763479;80;26348;-53
2022/06/21 12:59:06;;;;;;;1.82;1.82;;;;;;;;;;1779980;79;26364;-55
2022/06/21 13:01:35;;;;;;;1.70;1.70;;;;;;;;;;1752103;80;26433;-52
2022/06/21 13:04:06;;;;;;;1.82;1.82;;;;;;;;;;1773148;79;26962;-53
2022/06/21 13:06:38;;;;;;;1.70;1.70;;;;;;;;;;1744497;81;26344;-53
2022/06/21 13:09:10;;;;;;;2.00;2.00;;;;;;;;;;1735260;80;26767;-56
2022/06/21 13:11:45;;;;;;;1.80;1.70;;;;;;;;;;1747862;81;26368;-53
2022/06/21 13:14:30;;;;;;;1.70;1.70;;;;;;;;;;1752695;81;26337;-56
2022/06/21 13:16:59;;;;;;;2.10;2.00;;;;;;;;;;1752189;80;26864;-59
2022/06/21 13:19:28;;;;;;;1.70;1.70;;;;;;;;;;1748330;80;26683;-57
2022/06/21 13:22:00;;;;;;;2.12;2.02;;;;;;;;;;1741531;81;26391;-57
2022/06/21 13:24:47;;;;;;;1.90;1.80;;;;;;;;;;1735210;80;26323;-52
2022/06/21 13:27:16;;;;;;;1.87;1.77;;;;;;;;;;1741569;81;26321;-52
2022/06/21 13:30:02;;;;;;;1.72;1.72;;;;;;;;;;1745441;80;26316;-58
2022/06/21 13:32:31;;;;;;;1.72;1.67;;;;;;;;;;1795531;79;26291;-60
2022/06/21 13:34:59;;;;;;;1.98;1.90;;;;;;;;;;1774047;79;26337;-58
2022/06/21 13:37:31;;;;;;;1.87;1.87;;;;;;;;;;1773546;79;26277;-56
2022/06/21 13:40:03;;;;;;;1.95;1.92;;;;;;;;;;1777524;79;26297;-53
2022/06/21 13:42:38;;;;;;;1.70;1.70;;;;;;;;;;1738687;80;26310;-55
2022/06/21 13:45:07;;;;;;;2.08;1.98;;;;;;;;;;1753848;80;26359;-53
2022/06/21 13:47:42;;;;;;;1.62;1.62;;;;;;;;;;1742692;81;26238;-58
2022/06/21 13:50:17;;;;;;;1.95;1.85;;;;;;;;;;1746175;81;26294;-54
2022/06/21 13:52:48;;;;;;;1.77;1.77;;;;;;;;;;1732514;81;27483;-59
2022/06/21 13:55:32;;;;;;;1.70;1.70;;;;;;;;;;1756773;80;26310;-54
2022/06/21 13:58:04;;;;;;;1.87;1.87;;;;;;;;;;1737424;80;26765;-53
2022/06/21 14:00:32;;;;;;;2.35;1.80;;;;;;;;;;1747965;80;26855;-57
2022/06/21 14:03:06;;;;;;;1.80;1.80;;;;;;;;;;1745857;81;26798;-56
2022/06/21 14:05:41;;;;;;;1.67;1.67;;;;;;;;;;1742907;81;26290;-56
2022/06/21 14:08:22;;;;;;;1.92;1.82;;;;;;;;;;1746794;81;26804;-54
2022/06/21 14:10:57;;;;;;;1.67;1.60;;;;;;;;;;1747807;81;27417;-54
2022/06/21 14:13:25;;;;;;;1.75;1.75;;;;;;;;;;1747272;80;26348;-52
2022/06/21 14:16:11;;;;;;;1.80;1.80;;;;;;;;;;1748347;80;26385;-54
2022/06/21 14:18:50;;;;;;;1.57;1.57;;;;;;;;;;1736799;80;26817;-49
2022/06/21 14:21:25;;;;;;;1.60;1.60;;;;;;;;;;1751200;80;26363;-49
2022/06/21 14:24:06;;;;;;;1.70;1.70;;;;;;;;;;1747340;81;26295;-54
2022/06/21 14:26:35;;;;;;;1.60;1.60;;;;;;;;;;1746870;80;26309;-52
2022/06/21 14:29:04;;;;;;;1.82;1.70;;;;;;;;;;1743928;81;26293;-54
2022/06/21 14:31:36;;;;;;;1.77;1.67;;;;;;;;;;1753763;80;26381;-60
2022/06/21 14:34:11;;;;;;;2.12;1.45;;;;;;;;;;1749775;80;26278;-54
2022/06/21 14:36:56;;;;;;;1.80;1.70;;;;;;;;;;1755026;80;26387;-55
2022/06/21 14:39:36;;;;;;;1.60;1.60;;;;;;;;;;1742673;80;26324;-55
2022/06/21 14:42:17;;;;;;;2.10;2.00;;;;;;;;;;1757690;80;26338;-50
2022/06/21 14:44:46;;;;;;;1.60;1.60;;;;;;;;;;1743716;80;26329;-54
2022/06/21 14:47:27;;;;;;;1.60;1.60;;;;;;;;;;1740449;80;26311;-49
2022/06/21 14:49:56;;;;;;;1.72;1.72;;;;;;;;;;1752653;80;26312;-52
2022/06/21 14:52:40;;;;;;;1.50;1.50;;;;;;;;;;1767241;80;26296;-58
2022/06/21 14:55:24;;;;;;;1.50;1.50;;;;;;;;;;1768298;80;26312;-55
2022/06/21 14:57:52;;;;;;;1.57;1.57;;;;;;;;;;1753696;80;26403;-55
2022/06/21 15:00:27;;;;;;;1.47;1.47;;;;;;;;;;1783607;79;26283;-54
2022/06/21 15:02:59;;;;;;;1.55;1.50;;;;;;;;;;1771575;80;26295;-54
2022/06/21 15:05:31;;;;;;;1.50;1.50;;;;;;;;;;1756937;80;26319;-54
2022/06/21 15:08:06;;;;;;;1.50;1.50;;;;;;;;;;1785527;79;26416;-55
2022/06/21 15:10:36;;;;;;;1.50;1.50;;;;;;;;;;1762792;80;26433;-55
2022/06/21 15:13:05;;;;;;;1.40;1.40;;;;;;;;;;1758512;80;26744;-54
2022/06/21 15:15:34;;;;;;;1.40;1.40;;;;;;;;;;1754915;80;26329;-57
2022/06/21 15:18:06;;;;;;;1.40;1.40;;;;;;;;;;1765511;80;26275;-54
2022/06/21 15:20:35;;;;;;;1.67;1.40;;;;;;;;;;1758338;80;26286;-52
2022/06/21 15:23:09;;;;;;;1.40;1.40;;;;;;;;;;1758549;80;26357;-55
2022/06/21 15:25:57;;;;;;;1.40;1.40;;;;;;;;;;1774634;80;26405;-56
2022/06/21 15:28:41;;;;;;;1.40;1.40;;;;;;;;;;1749288;80;26340;-55
2022/06/21 15:31:14;;;;;;;1.60;1.60;;;;;;;;;;1739414;80;27343;-56
2022/06/21 15:33:46;;;;;;;1.50;1.50;;;;;;;;;;1765616;80;26300;-57